sensor_id;sensor_type;location;lat;lon;timestamp;pressure;altitude;pressure_sealevel;temperature;humidity
67052;BME280;53957;47.222;18.670;2022-10-19T05:25:11;100801.19;;;10.55;100.00
67052;BME280;53957;47.222;18.670;2022-10-19T05:28:15;100798.81;;;10.58;100.00
67052;BME280;53957;47.222;18.670;2022-10-19T05:31:24;100796.91;;;10.64;100.00
67052;BME280;53957;47.222;18.670;2022-10-19T05:34:28;100793.44;;;10.63;100.00
67052;BME280;53957;47.222;18.670;2022-10-19T05:37:33;100785.44;;;10.74;100.00
67052;BME280;53957;47.222;18.670;2022-10-19T05:40:37;100791.31;;;10.76;100.00
67052;BME280;53957;47.222;18.670;2022-10-19T05:43:40;100793.97;;;10.76;100.00
67052;BME280;53957;47.222;18.670;2022-10-19T05:46:44;100800.09;;;10.87;100.00
67052;BME280;53957;47.222;18.670;2022-10-19T05:49:49;100798.47;;;10.96;100.00
67052;BME280;53957;47.222;18.670;2022-10-19T05:52:53;100797.41;;;10.92;100.00
67052;BME280;53957;47.222;18.670;2022-10-19T05:55:58;100806.22;;;10.98;100.00
67052;BME280;53957;47.222;18.670;2022-10-19T05:59:03;100817.94;;;11.07;100.00
67052;BME280;53957;47.222;18.670;2022-10-19T06:02:12;100826.97;;;11.11;100.00
67052;BME280;53957;47.222;18.670;2022-10-19T06:05:15;100823.75;;;11.24;100.00
67052;BME280;53957;47.222;18.670;2022-10-19T06:08:20;100828.81;;;11.31;100.00
67052;BME280;53957;47.222;18.670;2022-10-19T06:11:43;100829.25;;;11.54;100.00
67052;BME280;53957;47.222;18.670;2022-10-19T06:18:03;100840.00;;;12.04;100.00
67052;BME280;53957;47.222;18.670;2022-10-19T06:21:09;100839.41;;;12.12;100.00
67052;BME280;53957;47.222;18.670;2022-10-19T06:24:13;100845.72;;;12.27;100.00
67052;BME280;53957;47.222;18.670;2022-10-19T06:27:18;100858.53;;;12.35;100.00
67052;BME280;53957;47.222;18.670;2022-10-19T06:30:23;100854.44;;;12.43;100.00
67052;BME280;53957;47.222;18.670;2022-10-19T06:33:27;100862.66;;;12.51;100.00
67052;BME280;53957;47.222;18.670;2022-10-19T06:36:33;100867.37;;;12.65;100.00
67052;BME280;53957;47.222;18.670;2022-10-19T06:39:35;100869.38;;;12.83;100.00
67052;BME280;53957;47.222;18.670;2022-10-19T06:42:39;100874.16;;;12.86;100.00
67052;BME280;53957;47.222;18.670;2022-10-19T06:45:42;100870.78;;;13.05;100.00
67052;BME280;53957;47.222;18.670;2022-10-19T06:49:15;100871.00;;;13.09;100.00
67052;BME280;53957;47.222;18.670;2022-10-19T06:52:22;100866.69;;;13.37;100.00
67052;BME280;53957;47.222;18.670;2022-10-19T06:55:46;100878.19;;;13.43;100.00
67052;BME280;53957;47.222;18.670;2022-10-19T06:58:50;100868.09;;;13.59;100.00
67052;BME280;53957;47.222;18.670;2022-10-19T07:02:14;100867.72;;;13.65;100.00
67052;BME280;53957;47.222;18.670;2022-10-19T07:05:17;100868.84;;;13.83;100.00
67052;BME280;53957;47.222;18.670;2022-10-19T07:08:20;100870.03;;;14.15;100.00
67052;BME280;53957;47.222;18.670;2022-10-19T07:11:23;100876.75;;;14.13;100.00
67052;BME280;53957;47.222;18.670;2022-10-19T07:14:26;100884.44;;;14.39;100.00
67052;BME280;53957;47.222;18.670;2022-10-19T07:17:41;100891.88;;;14.61;100.00
67052;BME280;53957;47.222;18.670;2022-10-19T07:20:59;100888.37;;;14.65;100.00
67052;BME280;53957;47.222;18.670;2022-10-19T07:24:21;100896.34;;;14.85;100.00
67052;BME280;53957;47.222;18.670;2022-10-19T07:27:33;100890.59;;;14.91;100.00
67052;BME280;53957;47.222;18.670;2022-10-19T07:31:04;100892.41;;;15.10;100.00
67052;BME280;53957;47.222;18.670;2022-10-19T07:34:28;100897.44;;;15.30;98.71
67052;BME280;53957;47.222;18.670;2022-10-19T07:37:30;100895.66;;;15.40;98.51
67052;BME280;53957;47.222;18.670;2022-10-19T07:40:36;100896.03;;;15.75;97.03
67052;BME280;53957;47.222;18.670;2022-10-19T07:43:40;100898.25;;;15.87;95.33
67052;BME280;53957;47.222;18.670;2022-10-19T07:46:44;100892.44;;;15.80;94.49
67052;BME280;53957;47.222;18.670;2022-10-19T07:49:46;100902.25;;;16.26;93.81
67052;BME280;53957;47.222;18.670;2022-10-19T07:52:53;100902.13;;;16.31;91.58
67052;BME280;53957;47.222;18.670;2022-10-19T07:56:05;100904.94;;;16.49;90.69
67052;BME280;53957;47.222;18.670;2022-10-19T08:10:45;100907.41;;;17.45;85.24
67052;BME280;53957;47.222;18.670;2022-10-19T08:14:25;100912.31;;;17.43;84.02
67052;BME280;53957;47.222;18.670;2022-10-19T08:17:28;100913.12;;;18.27;83.40
67052;BME280;53957;47.222;18.670;2022-10-19T08:21:21;100908.34;;;18.15;82.60
67052;BME280;53957;47.222;18.670;2022-10-19T08:24:44;100911.81;;;18.69;80.49
67052;BME280;53957;47.222;18.670;2022-10-19T08:27:47;100904.50;;;18.60;79.28
67052;BME280;53957;47.222;18.670;2022-10-19T08:30:50;100910.28;;;18.32;80.83
67052;BME280;53957;47.222;18.670;2022-10-19T08:33:54;100910.84;;;18.91;79.22
67052;BME280;53957;47.222;18.670;2022-10-19T08:36:57;100908.44;;;18.89;77.84
67052;BME280;53957;47.222;18.670;2022-10-19T08:40:00;100907.41;;;19.20;77.02
67052;BME280;53957;47.222;18.670;2022-10-19T08:43:22;100906.12;;;19.86;74.25
67052;BME280;53957;47.222;18.670;2022-10-19T08:46:49;100912.66;;;19.25;76.75
67052;BME280;53957;47.222;18.670;2022-10-19T08:49:57;100910.56;;;19.61;73.88
67052;BME280;53957;47.222;18.670;2022-10-19T08:53:09;100918.78;;;19.73;72.06
67052;BME280;53957;47.222;18.670;2022-10-19T09:03:54;100911.91;;;20.06;70.43
67052;BME280;53957;47.222;18.670;2022-10-19T09:07:24;100922.19;;;20.55;70.08
67052;BME280;53957;47.222;18.670;2022-10-19T09:10:30;100916.53;;;20.60;67.49
67052;BME280;53957;47.222;18.670;2022-10-19T09:13:43;100918.44;;;20.47;70.06
67052;BME280;53957;47.222;18.670;2022-10-19T09:17:26;100917.12;;;20.66;68.01
67052;BME280;53957;47.222;18.670;2022-10-19T09:20:38;100912.41;;;19.39;69.35
67052;BME280;53957;47.222;18.670;2022-10-19T09:28:42;100922.66;;;20.57;65.88
67052;BME280;53957;47.222;18.670;2022-10-19T09:31:52;100906.31;;;20.44;64.95
67052;BME280;53957;47.222;18.670;2022-10-19T09:35:04;100915.75;;;20.81;65.91
67052;BME280;53957;47.222;18.670;2022-10-19T09:38:30;100921.31;;;20.63;64.24
67052;BME280;53957;47.222;18.670;2022-10-19T09:41:57;100912.63;;;20.70;63.07
67052;BME280;53957;47.222;18.670;2022-10-19T09:45:12;100919.34;;;20.85;65.00
67052;BME280;53957;47.222;18.670;2022-10-19T09:48:38;100914.97;;;20.92;62.87
67052;BME280;53957;47.222;18.670;2022-10-19T09:51:45;100921.06;;;20.89;62.65
67052;BME280;53957;47.222;18.670;2022-10-19T09:55:01;100919.91;;;20.78;62.90
67052;BME280;53957;47.222;18.670;2022-10-19T10:01:35;100919.22;;;20.81;61.12
67052;BME280;53957;47.222;18.670;2022-10-19T10:05:14;100918.31;;;20.77;62.63
67052;BME280;53957;47.222;18.670;2022-10-19T10:08:20;100914.69;;;21.19;61.31
67052;BME280;53957;47.222;18.670;2022-10-19T10:11:45;100918.19;;;21.44;61.03
67052;BME280;53957;47.222;18.670;2022-10-19T10:14:53;100912.22;;;20.80;63.69
67052;BME280;53957;47.222;18.670;2022-10-19T10:17:58;100914.41;;;20.53;61.84
67052;BME280;53957;47.222;18.670;2022-10-19T10:21:19;100898.69;;;20.04;61.52
67052;BME280;53957;47.222;18.670;2022-10-19T10:27:56;100895.09;;;19.91;62.59
67052;BME280;53957;47.222;18.670;2022-10-19T10:31:03;100892.31;;;20.42;56.94
67052;BME280;53957;47.222;18.670;2022-10-19T10:34:17;100896.47;;;20.61;59.73
67052;BME280;53957;47.222;18.670;2022-10-19T10:37:40;100886.25;;;20.79;57.33
67052;BME280;53957;47.222;18.670;2022-10-19T10:40:58;100886.47;;;20.53;54.31
67052;BME280;53957;47.222;18.670;2022-10-19T10:44:13;100876.41;;;20.41;52.65
67052;BME280;53957;47.222;18.670;2022-10-19T10:47:19;100871.91;;;20.45;55.37
67052;BME280;53957;47.222;18.670;2022-10-19T10:50:30;100872.56;;;20.42;55.40
67052;BME280;53957;47.222;18.670;2022-10-19T10:53:39;100867.09;;;20.30;57.78
67052;BME280;53957;47.222;18.670;2022-10-19T10:56:43;100865.53;;;20.29;55.17
67052;BME280;53957;47.222;18.670;2022-10-19T11:00:11;100871.13;;;20.23;55.34
67052;BME280;53957;47.222;18.670;2022-10-19T11:03:22;100859.00;;;20.42;56.63
67052;BME280;53957;47.222;18.670;2022-10-19T11:06:26;100858.59;;;20.52;58.20
67052;BME280;53957;47.222;18.670;2022-10-19T11:09:41;100845.84;;;20.19;58.72
67052;BME280;53957;47.222;18.670;2022-10-19T11:12:48;100846.06;;;20.14;59.67
67052;BME280;53957;47.222;18.670;2022-10-19T11:16:22;100837.75;;;19.98;60.44
67052;BME280;53957;47.222;18.670;2022-10-19T11:19:35;100843.28;;;20.02;60.17
67052;BME280;53957;47.222;18.670;2022-10-19T11:23:01;100838.88;;;19.97;60.20
67052;BME280;53957;47.222;18.670;2022-10-19T11:37:41;100820.59;;;19.64;62.68
67052;BME280;53957;47.222;18.670;2022-10-19T11:41:37;100825.81;;;19.69;59.55
67052;BME280;53957;47.222;18.670;2022-10-19T11:44:54;100827.59;;;19.44;62.11
67052;BME280;53957;47.222;18.670;2022-10-19T11:55:20;100818.44;;;18.97;64.17
67052;BME280;53957;47.222;18.670;2022-10-19T11:59:05;100818.38;;;18.67;63.33
67052;BME280;53957;47.222;18.670;2022-10-19T12:09:04;100809.59;;;18.06;66.27
67052;BME280;53957;47.222;18.670;2022-10-19T12:12:41;100806.53;;;18.42;62.84
67052;BME280;53957;47.222;18.670;2022-10-19T12:15:48;100801.00;;;18.77;62.35
67052;BME280;53957;47.222;18.670;2022-10-19T12:18:58;100809.69;;;19.01;62.10
67052;BME280;53957;47.222;18.670;2022-10-19T12:22:03;100806.47;;;19.07;60.62
67052;BME280;53957;47.222;18.670;2022-10-19T12:25:12;100802.81;;;19.33;61.82
67052;BME280;53957;47.222;18.670;2022-10-19T12:28:34;100804.75;;;19.33;62.49
67052;BME280;53957;47.222;18.670;2022-10-19T12:31:39;100796.44;;;19.38;61.33
67052;BME280;53957;47.222;18.670;2022-10-19T12:34:58;100808.38;;;18.59;63.34
67052;BME280;53957;47.222;18.670;2022-10-19T12:38:11;100821.28;;;17.66;61.93
67052;BME280;53957;47.222;18.670;2022-10-19T12:41:40;100820.81;;;17.73;62.08
67052;BME280;53957;47.222;18.670;2022-10-19T12:51:16;100812.25;;;17.70;60.89
67052;BME280;53957;47.222;18.670;2022-10-19T12:54:25;100815.75;;;17.89;61.29
67052;BME280;53957;47.222;18.670;2022-10-19T12:57:29;100814.31;;;17.91;61.06
67052;BME280;53957;47.222;18.670;2022-10-19T13:00:34;100812.59;;;17.86;61.67
67052;BME280;53957;47.222;18.670;2022-10-19T13:03:41;100797.81;;;17.75;59.58
67052;BME280;53957;47.222;18.670;2022-10-19T13:07:14;100797.81;;;17.84;58.24
67052;BME280;53957;47.222;18.670;2022-10-19T13:10:40;100789.25;;;17.64;62.06
67052;BME280;53957;47.222;18.670;2022-10-19T13:14:05;100793.66;;;17.69;59.73
67052;BME280;53957;47.222;18.670;2022-10-19T13:17:50;100793.37;;;17.79;60.65
67052;BME280;53957;47.222;18.670;2022-10-19T13:28:58;100800.31;;;17.54;62.77
67052;BME280;53957;47.222;18.670;2022-10-19T13:37:01;100792.38;;;17.31;62.83
67052;BME280;53957;47.222;18.670;2022-10-19T13:44:31;100792.97;;;17.28;63.57
67052;BME280;53957;47.222;18.670;2022-10-19T13:47:51;100779.94;;;17.13;63.73
67052;BME280;53957;47.222;18.670;2022-10-19T14:07:29;100785.28;;;16.95;65.41
67052;BME280;53957;47.222;18.670;2022-10-19T14:10:36;100777.13;;;16.86;64.20
67052;BME280;53957;47.222;18.670;2022-10-19T14:14:26;100780.38;;;16.97;64.70
67052;BME280;53957;47.222;18.670;2022-10-19T14:17:30;100785.53;;;16.85;65.15
67052;BME280;53957;47.222;18.670;2022-10-19T14:20:37;100780.88;;;16.77;65.27
67052;BME280;53957;47.222;18.670;2022-10-19T14:23:40;100780.41;;;16.74;63.00
67052;BME280;53957;47.222;18.670;2022-10-19T14:26:45;100785.72;;;16.57;64.71
67052;BME280;53957;47.222;18.670;2022-10-19T14:29:50;100784.12;;;16.56;65.83
67052;BME280;53957;47.222;18.670;2022-10-19T14:32:54;100783.41;;;16.41;64.56
67052;BME280;53957;47.222;18.670;2022-10-19T14:36:13;100779.97;;;16.50;65.15
67052;BME280;53957;47.222;18.670;2022-10-19T14:43:40;100766.72;;;16.31;66.58
67052;BME280;53957;47.222;18.670;2022-10-19T14:54:45;100773.66;;;16.00;68.24
67052;BME280;53957;47.222;18.670;2022-10-19T14:57:51;100776.09;;;15.88;68.45
67052;BME280;53957;47.222;18.670;2022-10-19T15:01:05;100771.09;;;15.81;68.44
67052;BME280;53957;47.222;18.670;2022-10-19T15:08:18;100782.13;;;15.57;69.62
67052;BME280;53957;47.222;18.670;2022-10-19T15:11:30;100781.12;;;15.53;69.49
67052;BME280;53957;47.222;18.670;2022-10-19T15:14:54;100784.06;;;15.42;70.39
67052;BME280;53957;47.222;18.670;2022-10-19T15:18:15;100785.25;;;15.36;71.07
67052;BME280;53957;47.222;18.670;2022-10-19T15:25:26;100793.94;;;15.05;73.56
67052;BME280;53957;47.222;18.670;2022-10-19T15:28:35;100781.59;;;15.04;74.42
67052;BME280;53957;47.222;18.670;2022-10-19T15:31:45;100785.56;;;14.93;73.06
67052;BME280;53957;47.222;18.670;2022-10-19T15:34:48;100791.53;;;14.90;72.65
67052;BME280;53957;47.222;18.670;2022-10-19T15:38:12;100793.00;;;14.82;71.23
67052;BME280;53957;47.222;18.670;2022-10-19T15:41:20;100786.44;;;14.74;72.48
67052;BME280;53957;47.222;18.670;2022-10-19T15:44:39;100793.91;;;14.77;72.07
67052;BME280;53957;47.222;18.670;2022-10-19T15:54:27;100790.81;;;14.37;74.70
67052;BME280;53957;47.222;18.670;2022-10-19T15:57:35;100801.56;;;14.18;76.22
67052;BME280;53957;47.222;18.670;2022-10-19T16:00:40;100811.16;;;14.05;77.67
67052;BME280;53957;47.222;18.670;2022-10-19T16:03:44;100814.44;;;13.83;79.23
67052;BME280;53957;47.222;18.670;2022-10-19T16:06:47;100809.56;;;13.66;78.84
67052;BME280;53957;47.222;18.670;2022-10-19T16:09:51;100812.53;;;13.64;78.16
67052;BME280;53957;47.222;18.670;2022-10-19T16:12:54;100824.03;;;13.46;80.92
67052;BME280;53957;47.222;18.670;2022-10-19T16:16:03;100825.09;;;13.45;80.02
67052;BME280;53957;47.222;18.670;2022-10-19T16:19:13;100811.56;;;13.31;80.87
67052;BME280;53957;47.222;18.670;2022-10-19T16:22:17;100815.12;;;13.26;82.15
67052;BME280;53957;47.222;18.670;2022-10-19T16:25:20;100809.53;;;13.23;82.70
67052;BME280;53957;47.222;18.670;2022-10-19T16:28:23;100812.03;;;13.14;81.46
67052;BME280;53957;47.222;18.670;2022-10-19T16:31:27;100821.88;;;13.18;81.97
67052;BME280;53957;47.222;18.670;2022-10-19T16:34:30;100835.34;;;13.13;80.39
67052;BME280;53957;47.222;18.670;2022-10-19T16:37:33;100853.72;;;12.96;82.44
67052;BME280;53957;47.222;18.670;2022-10-19T16:40:38;100840.47;;;12.80;83.14
67052;BME280;53957;47.222;18.670;2022-10-19T16:43:42;100838.38;;;12.77;81.66
67052;BME280;53957;47.222;18.670;2022-10-19T16:46:45;100826.47;;;12.64;83.20
67052;BME280;53957;47.222;18.670;2022-10-19T16:49:56;100845.69;;;12.66;82.91
67052;BME280;53957;47.222;18.670;2022-10-19T16:53:06;100855.41;;;12.57;83.17
67052;BME280;53957;47.222;18.670;2022-10-19T16:56:12;100857.91;;;12.48;84.12
67052;BME280;53957;47.222;18.670;2022-10-19T16:59:17;100864.06;;;12.44;83.83
67052;BME280;53957;47.222;18.670;2022-10-19T17:02:21;100870.56;;;12.32;84.46
67052;BME280;53957;47.222;18.670;2022-10-19T17:05:24;100873.03;;;12.23;84.36
67052;BME280;53957;47.222;18.670;2022-10-19T17:08:29;100870.38;;;12.18;84.44
67052;BME280;53957;47.222;18.670;2022-10-19T17:11:46;100874.19;;;12.07;84.99
67052;BME280;53957;47.222;18.670;2022-10-19T17:14:50;100871.84;;;12.00;84.84
67052;BME280;53957;47.222;18.670;2022-10-19T17:17:53;100872.94;;;11.89;84.96
67052;BME280;53957;47.222;18.670;2022-10-19T17:21:06;100876.44;;;11.84;84.74
67052;BME280;53957;47.222;18.670;2022-10-19T17:24:15;100871.63;;;11.81;86.01
67052;BME280;53957;47.222;18.670;2022-10-19T17:27:24;100881.84;;;11.64;86.57
67052;BME280;53957;47.222;18.670;2022-10-19T17:30:29;100893.59;;;11.73;85.36
67052;BME280;53957;47.222;18.670;2022-10-19T17:33:34;100897.34;;;11.67;83.85
67052;BME280;53957;47.222;18.670;2022-10-19T17:36:41;100893.41;;;11.43;87.08
67052;BME280;53957;47.222;18.670;2022-10-19T17:39:50;100892.66;;;11.27;88.65
67052;BME280;53957;47.222;18.670;2022-10-19T17:42:53;100881.47;;;11.15;87.46
67052;BME280;53957;47.222;18.670;2022-10-19T17:46:01;100888.97;;;10.98;90.71
67052;BME280;53957;47.222;18.670;2022-10-19T17:49:06;100891.59;;;11.18;89.28
67052;BME280;53957;47.222;18.670;2022-10-19T17:52:09;100881.94;;;11.33;83.67
67052;BME280;53957;47.222;18.670;2022-10-19T17:55:13;100884.13;;;11.20;86.23
67052;BME280;53957;47.222;18.670;2022-10-19T17:58:17;100889.47;;;11.20;85.61
67052;BME280;53957;47.222;18.670;2022-10-19T18:01:20;100890.25;;;11.21;84.71
67052;BME280;53957;47.222;18.670;2022-10-19T18:04:24;100897.47;;;11.20;85.87
67052;BME280;53957;47.222;18.670;2022-10-19T18:07:27;100894.53;;;11.17;83.96
67052;BME280;53957;47.222;18.670;2022-10-19T18:10:34;100892.13;;;11.20;82.29
67052;BME280;53957;47.222;18.670;2022-10-19T18:13:37;100879.81;;;11.24;81.86
67052;BME280;53957;47.222;18.670;2022-10-19T18:16:45;100880.91;;;11.28;82.37
67052;BME280;53957;47.222;18.670;2022-10-19T18:19:49;100912.69;;;11.25;82.74
67052;BME280;53957;47.222;18.670;2022-10-19T18:22:52;100915.59;;;11.23;82.03
67052;BME280;53957;47.222;18.670;2022-10-19T18:25:59;100927.91;;;11.14;82.51
67052;BME280;53957;47.222;18.670;2022-10-19T18:29:11;100926.59;;;11.06;83.24
67052;BME280;53957;47.222;18.670;2022-10-19T18:32:14;100912.97;;;10.87;84.39
67052;BME280;53957;47.222;18.670;2022-10-19T18:35:18;100922.84;;;10.71;84.13
67052;BME280;53957;47.222;18.670;2022-10-19T18:38:21;100929.81;;;10.88;83.25
67052;BME280;53957;47.222;18.670;2022-10-19T18:41:25;100934.56;;;10.60;85.86
67052;BME280;53957;47.222;18.670;2022-10-19T18:44:29;100925.19;;;10.37;85.78
67052;BME280;53957;47.222;18.670;2022-10-19T18:47:35;100933.22;;;10.47;85.17
67052;BME280;53957;47.222;18.670;2022-10-19T18:50:39;100921.41;;;10.27;86.26
67052;BME280;53957;47.222;18.670;2022-10-19T18:53:43;100926.00;;;10.47;85.68
67052;BME280;53957;47.222;18.670;2022-10-19T18:56:48;100929.41;;;10.27;85.81
67052;BME280;53957;47.222;18.670;2022-10-19T18:59:54;100928.03;;;10.14;88.64
67052;BME280;53957;47.222;18.670;2022-10-19T19:02:57;100941.09;;;10.16;87.51
67052;BME280;53957;47.222;18.670;2022-10-19T19:06:01;100950.13;;;10.05;87.62
67052;BME280;53957;47.222;18.670;2022-10-19T19:09:07;100947.16;;;9.96;89.72
67052;BME280;53957;47.222;18.670;2022-10-19T19:12:11;100942.59;;;9.91;88.53
67052;BME280;53957;47.222;18.670;2022-10-19T19:15:14;100943.13;;;9.88;89.09
67052;BME280;53957;47.222;18.670;2022-10-19T19:18:18;100958.81;;;9.79;89.73
67052;BME280;53957;47.222;18.670;2022-10-19T19:21:28;100965.75;;;9.80;89.93
67052;BME280;53957;47.222;18.670;2022-10-19T19:24:31;100970.78;;;9.77;90.08
67052;BME280;53957;47.222;18.670;2022-10-19T19:27:35;100964.12;;;9.79;88.67
67052;BME280;53957;47.222;18.670;2022-10-19T19:30:45;100962.06;;;9.87;88.60
67052;BME280;53957;47.222;18.670;2022-10-19T19:33:49;100971.59;;;9.82;87.59
67052;BME280;53957;47.222;18.670;2022-10-19T19:36:52;100973.00;;;9.90;85.97
67052;BME280;53957;47.222;18.670;2022-10-19T19:39:56;100980.91;;;9.80;86.74
67052;BME280;53957;47.222;18.670;2022-10-19T19:43:00;100975.87;;;9.83;87.06
67052;BME280;53957;47.222;18.670;2022-10-19T19:46:05;100980.91;;;9.75;87.06
67052;BME280;53957;47.222;18.670;2022-10-19T19:49:11;100978.97;;;9.65;86.41
67052;BME280;53957;47.222;18.670;2022-10-19T19:52:15;100966.78;;;9.74;85.93
67052;BME280;53957;47.222;18.670;2022-10-19T19:55:19;100969.16;;;9.71;85.57
67052;BME280;53957;47.222;18.670;2022-10-19T19:58:22;100985.13;;;9.71;86.33
67052;BME280;53957;47.222;18.670;2022-10-19T20:01:25;100992.22;;;9.55;86.55
67052;BME280;53957;47.222;18.670;2022-10-19T20:04:29;100993.03;;;9.55;85.30
67052;BME280;53957;47.222;18.670;2022-10-19T20:07:32;100998.88;;;9.52;85.82
67052;BME280;53957;47.222;18.670;2022-10-19T20:10:38;101005.84;;;9.58;85.67
67052;BME280;53957;47.222;18.670;2022-10-19T20:13:43;101013.75;;;9.48;84.41
67052;BME280;53957;47.222;18.670;2022-10-19T20:16:47;101012.69;;;9.49;85.50
67052;BME280;53957;47.222;18.670;2022-10-19T20:19:50;100999.94;;;9.51;85.23
67052;BME280;53957;47.222;18.670;2022-10-19T20:22:53;100990.09;;;9.57;83.28
67052;BME280;53957;47.222;18.670;2022-10-19T20:25:56;100997.00;;;9.53;83.73
67052;BME280;53957;47.222;18.670;2022-10-19T20:29:01;101002.03;;;9.49;83.33
67052;BME280;53957;47.222;18.670;2022-10-19T20:32:04;101012.12;;;9.47;85.70
67052;BME280;53957;47.222;18.670;2022-10-19T20:35:08;101024.25;;;9.27;86.00
67052;BME280;53957;47.222;18.670;2022-10-19T20:38:10;101043.81;;;9.16;87.59
67052;BME280;53957;47.222;18.670;2022-10-19T20:41:14;101025.72;;;9.13;87.13
67052;BME280;53957;47.222;18.670;2022-10-19T20:44:20;101013.75;;;9.15;87.53
67052;BME280;53957;47.222;18.670;2022-10-19T20:47:24;101011.06;;;9.10;86.67
67052;BME280;53957;47.222;18.670;2022-10-19T20:50:28;101027.03;;;9.10;85.50
67052;BME280;53957;47.222;18.670;2022-10-19T20:53:31;101033.69;;;9.13;85.92
67052;BME280;53957;47.222;18.670;2022-10-19T20:56:35;101033.13;;;9.11;86.01
67052;BME280;53957;47.222;18.670;2022-10-19T20:59:40;101024.03;;;9.01;85.55
67052;BME280;53957;47.222;18.670;2022-10-19T21:02:45;101033.19;;;8.89;87.80
67052;BME280;53957;47.222;18.670;2022-10-19T21:05:48;101037.91;;;8.81;86.44
67052;BME280;53957;47.222;18.670;2022-10-19T21:08:51;101040.25;;;8.78;85.79
67052;BME280;53957;47.222;18.670;2022-10-19T21:11:54;101045.00;;;8.70;87.62
67052;BME280;53957;47.222;18.670;2022-10-19T21:14:56;101044.03;;;8.54;87.60
67052;BME280;53957;47.222;18.670;2022-10-19T21:17:59;101052.16;;;8.48;88.35
67052;BME280;53957;47.222;18.670;2022-10-19T21:21:20;101052.75;;;8.33;89.53
67052;BME280;53957;47.222;18.670;2022-10-19T21:24:26;101038.66;;;8.32;89.74
67052;BME280;53957;47.222;18.670;2022-10-19T21:27:29;101041.19;;;8.22;90.22
67052;BME280;53957;47.222;18.670;2022-10-19T21:30:38;101047.41;;;8.11;89.61
67052;BME280;53957;47.222;18.670;2022-10-19T21:33:40;101045.81;;;8.10;90.38
67052;BME280;53957;47.222;18.670;2022-10-19T21:36:43;101038.97;;;8.14;90.26
67052;BME280;53957;47.222;18.670;2022-10-19T21:39:46;101047.59;;;8.04;90.31
67052;BME280;53957;47.222;18.670;2022-10-19T21:42:49;101047.34;;;8.05;90.08
67052;BME280;53957;47.222;18.670;2022-10-19T21:45:51;101045.69;;;7.99;89.87
67052;BME280;53957;47.222;18.670;2022-10-19T21:48:55;101048.66;;;8.03;91.68
67052;BME280;53957;47.222;18.670;2022-10-19T21:51:57;101034.91;;;7.89;91.29
67052;BME280;53957;47.222;18.670;2022-10-19T21:55:00;101046.34;;;7.89;90.53
67052;BME280;53957;47.222;18.670;2022-10-19T21:58:03;101051.72;;;7.95;89.83
67052;BME280;53957;47.222;18.670;2022-10-19T22:01:07;101045.28;;;7.90;90.82
67052;BME280;53957;47.222;18.670;2022-10-19T22:04:15;101050.03;;;7.88;90.86
67052;BME280;53957;47.222;18.670;2022-10-19T22:07:18;101052.69;;;7.71;92.53
67052;BME280;53957;47.222;18.670;2022-10-19T22:10:21;101049.00;;;7.72;92.81
67052;BME280;53957;47.222;18.670;2022-10-19T22:13:24;101050.87;;;7.55;94.10
67052;BME280;53957;47.222;18.670;2022-10-19T22:16:28;101061.47;;;7.38;94.26
67052;BME280;53957;47.222;18.670;2022-10-19T22:19:31;101060.97;;;7.24;95.02
67052;BME280;53957;47.222;18.670;2022-10-19T22:22:34;101067.53;;;7.04;97.31
67052;BME280;53957;47.222;18.670;2022-10-19T22:25:36;101068.44;;;7.10;96.50
67052;BME280;53957;47.222;18.670;2022-10-19T22:28:39;101064.13;;;6.92;97.60
67052;BME280;53957;47.222;18.670;2022-10-19T22:31:43;101071.03;;;6.93;97.50
67052;BME280;53957;47.222;18.670;2022-10-19T22:34:46;101070.31;;;6.69;98.87
67052;BME280;53957;47.222;18.670;2022-10-19T22:37:48;101066.28;;;6.66;98.84
67052;BME280;53957;47.222;18.670;2022-10-19T22:45:09;101059.91;;;6.79;97.71
67052;BME280;53957;47.222;18.670;2022-10-19T22:48:12;101064.28;;;6.85;97.21
67052;BME280;53957;47.222;18.670;2022-10-19T22:51:15;101054.47;;;6.86;97.78
67052;BME280;53957;47.222;18.670;2022-10-19T22:54:18;101058.62;;;6.82;98.55
67052;BME280;53957;47.222;18.670;2022-10-19T22:57:20;101060.37;;;6.76;98.58
67052;BME280;53957;47.222;18.670;2022-10-19T23:00:24;101058.41;;;6.71;98.74
67052;BME280;53957;47.222;18.670;2022-10-19T23:03:26;101064.44;;;6.67;99.01
67052;BME280;53957;47.222;18.670;2022-10-19T23:06:29;101072.06;;;6.63;99.42
67052;BME280;53957;47.222;18.670;2022-10-19T23:09:32;101071.84;;;6.53;99.12
67052;BME280;53957;47.222;18.670;2022-10-19T23:12:35;101064.00;;;6.58;99.30
67052;BME280;53957;47.222;18.670;2022-10-19T23:15:38;101074.59;;;6.58;99.46
67052;BME280;53957;47.222;18.670;2022-10-19T23:18:45;101067.81;;;6.50;100.00
67052;BME280;53957;47.222;18.670;2022-10-19T23:21:48;101076.00;;;6.49;99.28
67052;BME280;53957;47.222;18.670;2022-10-19T23:24:51;101075.44;;;6.47;100.00
67052;BME280;53957;47.222;18.670;2022-10-19T23:27:53;101084.78;;;6.37;100.00
67052;BME280;53957;47.222;18.670;2022-10-19T23:31:05;101082.25;;;6.42;99.36
67052;BME280;53957;47.222;18.670;2022-10-19T23:34:08;101078.22;;;6.40;100.00
67052;BME280;53957;47.222;18.670;2022-10-19T23:37:11;101088.00;;;6.39;100.00
67052;BME280;53957;47.222;18.670;2022-10-19T23:40:20;101079.84;;;6.29;100.00
67052;BME280;53957;47.222;18.670;2022-10-19T23:43:23;101087.56;;;6.19;100.00
67052;BME280;53957;47.222;18.670;2022-10-19T23:46:25;101093.56;;;6.14;100.00
67052;BME280;53957;47.222;18.670;2022-10-19T23:49:28;101096.31;;;6.07;100.00
